Time;durP1;ratioP1;P1;durP2;ratioP2;P2;SDS_P1;SDS_P2;PMS_P1;PMS_P2;Temp;Humidity;BMP_temperature;BMP_pressure;BME280_temperature;BME280_humidity;BME280_pressure;Samples;Min_cycle;Max_cycle;Signal;HPM_P1;HPM_P2
2021/12/12 00:00:53;;;;;;;20.42;7.13;;;;;;;;;;4992509;28;20117;-62
2021/12/12 00:06:28;;;;;;;20.00;6.07;;;;;;;;;;4971776;28;20070;-62
2021/12/12 00:08:59;;;;;;;19.92;6.53;;;;;;;;;;4994408;28;20391;-61
2021/12/12 00:11:27;;;;;;;25.83;6.85;;;;;;;;;;4993393;28;20038;-63
2021/12/12 00:14:00;;;;;;;19.58;6.78;;;;;;;;;;4992832;28;20080;-63
2021/12/12 00:16:26;;;;;;;15.32;6.32;;;;;;;;;;4993246;28;20141;-65
2021/12/12 00:18:52;;;;;;;13.30;6.22;;;;;;;;;;4993115;28;20043;-62
2021/12/12 00:21:19;;;;;;;18.60;6.05;;;;;;;;;;4990606;28;20472;-63
2021/12/12 00:23:46;;;;;;;14.00;6.20;;;;;;;;;;4975097;28;20941;-62
2021/12/12 00:26:11;;;;;;;20.42;7.05;;;;;;;;;;4990796;28;20061;-62
2021/12/12 00:28:39;;;;;;;16.25;5.45;;;;;;;;;;4992212;28;20464;-61
2021/12/12 00:31:10;;;;;;;15.23;6.22;;;;;;;;;;4975672;28;20030;-63
2021/12/12 00:33:38;;;;;;;15.63;6.13;;;;;;;;;;4990736;28;20022;-62
2021/12/12 00:36:04;;;;;;;15.73;5.72;;;;;;;;;;4992051;28;20488;-62
2021/12/12 00:38:32;;;;;;;20.45;6.43;;;;;;;;;;4991875;28;20045;-65
2021/12/12 00:41:02;;;;;;;19.10;6.20;;;;;;;;;;4992825;28;20551;-62
2021/12/12 00:43:36;;;;;;;16.05;5.47;;;;;;;;;;4992495;28;20042;-65
2021/12/12 00:46:05;;;;;;;16.02;5.88;;;;;;;;;;4990755;28;20076;-62
2021/12/12 00:48:34;;;;;;;17.60;6.05;;;;;;;;;;4989194;28;20044;-63
2021/12/12 00:51:01;;;;;;;17.45;6.00;;;;;;;;;;4990541;28;20061;-62
2021/12/12 00:53:27;;;;;;;13.32;5.25;;;;;;;;;;4974323;28;20476;-64
2021/12/12 00:55:54;;;;;;;13.30;5.82;;;;;;;;;;4990220;28;20106;-62
2021/12/12 00:58:21;;;;;;;10.63;5.07;;;;;;;;;;4991440;28;20380;-61
2021/12/12 01:01:02;;;;;;;10.07;4.75;;;;;;;;;;4989140;28;20078;-62
2021/12/12 01:03:33;;;;;;;;;;;;;;;;;;4991223;28;20033;-65
2021/12/12 01:06:00;;;;;;;14.02;4.80;;;;;;;;;;4976621;28;20383;-62
2021/12/12 01:08:28;;;;;;;13.30;5.28;;;;;;;;;;4986319;28;20034;-62
2021/12/12 01:11:00;;;;;;;15.85;4.45;;;;;;;;;;4991427;28;20096;-62
2021/12/12 01:13:26;;;;;;;11.38;4.63;;;;;;;;;;4973741;28;20374;-62
2021/12/12 01:15:57;;;;;;;11.25;4.78;;;;;;;;;;4990565;28;20043;-62
2021/12/12 01:18:29;;;;;;;11.15;4.78;;;;;;;;;;4989602;28;20104;-62
2021/12/12 01:21:00;;;;;;;9.75;4.28;;;;;;;;;;4990482;28;20097;-62
2021/12/12 01:23:35;;;;;;;11.70;4.53;;;;;;;;;;4981723;28;20040;-63
2021/12/12 01:26:02;;;;;;;14.63;5.07;;;;;;;;;;4992642;28;20070;-62
2021/12/12 01:28:32;;;;;;;10.80;4.20;;;;;;;;;;4992472;28;20041;-62
2021/12/12 01:31:03;;;;;;;12.52;4.38;;;;;;;;;;4975450;28;20030;-62
2021/12/12 01:33:36;;;;;;;9.88;4.22;;;;;;;;;;4992559;28;20038;-62
2021/12/12 01:36:23;;;;;;;11.40;4.07;;;;;;;;;;4992134;28;20373;-62
2021/12/12 01:38:58;;;;;;;10.70;4.13;;;;;;;;;;4973803;28;20314;-62
2021/12/12 01:41:39;;;;;;;14.20;4.28;;;;;;;;;;4992759;28;20053;-63
2021/12/12 01:44:28;;;;;;;10.15;3.38;;;;;;;;;;4989155;28;20403;-62
2021/12/12 01:46:59;;;;;;;10.77;3.65;;;;;;;;;;4990074;28;20104;-63
2021/12/12 01:49:25;;;;;;;;;;;;;;;;;;4974166;28;20113;-63
2021/12/12 01:51:53;;;;;;;10.43;4.60;;;;;;;;;;4989284;28;19917;-62
2021/12/12 01:54:26;;;;;;;8.95;3.88;;;;;;;;;;4991565;28;20476;-62
2021/12/12 01:56:55;;;;;;;13.48;4.18;;;;;;;;;;4991517;28;20046;-62
2021/12/12 01:59:34;;;;;;;12.23;3.70;;;;;;;;;;4990134;28;20524;-63
2021/12/12 02:02:14;;;;;;;8.75;3.60;;;;;;;;;;4989870;28;20042;-62
2021/12/12 02:04:47;;;;;;;9.60;4.00;;;;;;;;;;4986448;28;20121;-62
2021/12/12 02:07:16;;;;;;;11.00;4.28;;;;;;;;;;4978586;28;20027;-62
2021/12/12 02:09:43;;;;;;;11.20;3.80;;;;;;;;;;4989632;28;20044;-62
2021/12/12 02:12:09;;;;;;;13.88;4.10;;;;;;;;;;4990843;28;20053;-62
2021/12/12 02:14:42;;;;;;;11.75;4.00;;;;;;;;;;4989436;28;20117;-64
2021/12/12 02:17:23;;;;;;;8.27;3.72;;;;;;;;;;4983983;28;20488;-62
2021/12/12 02:23:37;;;;;;;7.35;3.60;;;;;;;;;;4991466;28;20043;-62
2021/12/12 02:36:27;;;;;;;11.30;3.33;;;;;;;;;;4978254;28;20049;-62
2021/12/12 02:38:54;;;;;;;10.02;3.30;;;;;;;;;;4989858;28;20077;-62
2021/12/12 02:41:21;;;;;;;9.10;3.10;;;;;;;;;;4967216;28;20373;-62
2021/12/12 02:43:56;;;;;;;9.38;3.80;;;;;;;;;;4967017;28;20116;-62
2021/12/12 02:46:27;;;;;;;11.00;3.80;;;;;;;;;;4977813;28;20042;-62
2021/12/12 02:48:58;;;;;;;;;;;;;;;;;;4989170;28;20110;-64
2021/12/12 02:51:25;;;;;;;9.38;2.88;;;;;;;;;;4991034;28;19913;-62
2021/12/12 02:53:55;;;;;;;7.85;3.30;;;;;;;;;;4990221;28;20042;-62
2021/12/12 02:56:35;;;;;;;6.60;3.03;;;;;;;;;;4990032;28;20495;-62
2021/12/12 02:59:04;;;;;;;7.28;3.25;;;;;;;;;;4993844;28;20089;-62
2021/12/12 03:01:35;;;;;;;10.52;2.63;;;;;;;;;;4992332;28;20081;-61
2021/12/12 03:04:00;;;;;;;10.45;2.70;;;;;;;;;;4972708;28;20487;-63
2021/12/12 03:06:29;;;;;;;7.47;2.70;;;;;;;;;;4992673;28;20030;-62
2021/12/12 03:09:13;;;;;;;9.75;2.90;;;;;;;;;;4991460;28;20117;-62
2021/12/12 03:11:39;;;;;;;7.18;2.90;;;;;;;;;;4993596;28;20108;-64
2021/12/12 03:14:05;;;;;;;6.78;2.80;;;;;;;;;;4976560;28;20034;-62
2021/12/12 03:16:32;;;;;;;8.25;2.70;;;;;;;;;;4994658;28;20034;-62
2021/12/12 03:18:58;;;;;;;9.77;2.88;;;;;;;;;;4990757;28;20069;-62
2021/12/12 03:21:32;;;;;;;7.65;2.83;;;;;;;;;;4993639;28;20049;-62
2021/12/12 03:24:07;;;;;;;10.77;2.85;;;;;;;;;;4992675;28;20022;-62
2021/12/12 03:26:33;;;;;;;7.20;2.60;;;;;;;;;;4994251;28;20045;-62
2021/12/12 03:28:59;;;;;;;10.38;3.00;;;;;;;;;;4990709;28;20050;-62
2021/12/12 03:31:32;;;;;;;9.05;3.22;;;;;;;;;;4994025;28;20116;-62
2021/12/12 03:33:59;;;;;;;6.95;2.42;;;;;;;;;;4992975;28;20275;-64
2021/12/12 03:36:24;;;;;;;9.45;3.17;;;;;;;;;;4991029;28;20125;-62
2021/12/12 03:38:57;;;;;;;10.02;2.85;;;;;;;;;;4990164;28;20484;-62
2021/12/12 03:41:27;;;;;;;8.65;2.70;;;;;;;;;;4993440;28;20400;-61
2021/12/12 03:43:58;;;;;;;8.73;2.90;;;;;;;;;;4992647;28;20045;-62
2021/12/12 03:46:24;;;;;;;10.07;2.63;;;;;;;;;;4993105;28;20037;-63
2021/12/12 03:48:50;;;;;;;8.80;2.70;;;;;;;;;;4992102;28;20034;-62
2021/12/12 03:51:18;;;;;;;7.00;3.05;;;;;;;;;;4987920;28;20034;-64
2021/12/12 03:53:44;;;;;;;9.43;2.90;;;;;;;;;;4984755;28;20026;-63
2021/12/12 03:56:12;;;;;;;7.53;2.72;;;;;;;;;;4992808;28;20034;-62
2021/12/12 03:58:40;;;;;;;10.13;3.13;;;;;;;;;;4991636;28;20125;-65
2021/12/12 04:01:15;;;;;;;8.40;3.25;;;;;;;;;;4998674;28;20038;-63
2021/12/12 04:03:43;;;;;;;9.60;2.95;;;;;;;;;;4997169;28;20038;-65
2021/12/12 04:06:13;;;;;;;8.68;3.10;;;;;;;;;;4996050;28;20543;-64
2021/12/12 04:08:41;;;;;;;10.07;2.80;;;;;;;;;;4992730;28;20110;-66
2021/12/12 04:11:16;;;;;;;12.45;3.65;;;;;;;;;;4993525;28;20055;-64
2021/12/12 04:13:45;;;;;;;8.07;2.88;;;;;;;;;;4975882;28;20484;-67
2021/12/12 04:16:10;;;;;;;9.23;3.28;;;;;;;;;;4994132;28;20498;-65
2021/12/12 04:18:36;;;;;;;12.68;3.17;;;;;;;;;;4993176;28;20062;-64
2021/12/12 04:21:02;;;;;;;8.35;3.30;;;;;;;;;;4993195;28;20022;-64
2021/12/12 04:23:28;;;;;;;9.55;2.88;;;;;;;;;;4993236;28;20042;-64
2021/12/12 04:25:54;;;;;;;10.93;3.08;;;;;;;;;;4992657;28;20026;-65
2021/12/12 04:28:20;;;;;;;10.02;2.97;;;;;;;;;;4993432;28;20174;-65
2021/12/12 04:30:47;;;;;;;9.65;3.47;;;;;;;;;;4992826;28;20105;-65
2021/12/12 04:33:13;;;;;;;8.20;3.08;;;;;;;;;;4993511;28;20035;-64
2021/12/12 04:35:39;;;;;;;10.57;3.10;;;;;;;;;;4993993;28;20457;-64
2021/12/12 04:38:05;;;;;;;11.77;3.50;;;;;;;;;;4992281;28;20066;-64
2021/12/12 04:40:33;;;;;;;7.93;3.20;;;;;;;;;;4991933;28;20038;-64
2021/12/12 04:43:00;;;;;;;14.63;3.80;;;;;;;;;;4992165;28;20472;-64
2021/12/12 04:45:50;;;;;;;11.80;3.20;;;;;;;;;;4993194;28;20503;-63
2021/12/12 04:51:15;;;;;;;9.68;3.08;;;;;;;;;;4992957;28;20044;-64
2021/12/12 04:54:04;;;;;;;9.80;3.20;;;;;;;;;;4988685;28;20040;-65
2021/12/12 04:56:40;;;;;;;12.50;3.35;;;;;;;;;;5009633;28;20125;-64
2021/12/12 04:59:42;;;;;;;11.20;3.33;;;;;;;;;;4992105;28;20034;-64
2021/12/12 05:02:16;;;;;;;12.30;3.33;;;;;;;;;;4960637;28;20042;-64
2021/12/12 05:04:47;;;;;;;9.52;3.00;;;;;;;;;;4992867;28;20482;-67
2021/12/12 05:07:29;;;;;;;9.65;3.30;;;;;;;;;;4992670;28;20038;-64
2021/12/12 05:10:02;;;;;;;10.35;3.35;;;;;;;;;;4991944;28;20038;-64
2021/12/12 05:12:42;;;;;;;10.20;3.38;;;;;;;;;;4990669;28;20042;-64
2021/12/12 05:15:13;;;;;;;8.15;3.42;;;;;;;;;;4989961;28;20476;-64
2021/12/12 05:17:43;;;;;;;12.57;3.10;;;;;;;;;;4992017;28;20022;-65
2021/12/12 05:20:20;;;;;;;10.23;3.42;;;;;;;;;;4989293;28;20121;-64
2021/12/12 05:22:50;;;;;;;7.88;2.92;;;;;;;;;;4990365;28;20035;-66
2021/12/12 05:25:20;;;;;;;13.52;3.17;;;;;;;;;;4974177;28;20483;-64
2021/12/12 05:27:49;;;;;;;10.25;3.33;;;;;;;;;;4990946;28;20041;-67
2021/12/12 05:30:25;;;;;;;8.75;3.60;;;;;;;;;;4973372;28;20077;-64
2021/12/12 05:32:52;;;;;;;10.65;3.38;;;;;;;;;;4990379;28;20037;-64
2021/12/12 05:35:20;;;;;;;7.95;3.17;;;;;;;;;;4990264;28;20026;-63
2021/12/12 05:37:49;;;;;;;10.13;3.95;;;;;;;;;;4971091;28;20038;-66
2021/12/12 05:40:15;;;;;;;13.70;3.90;;;;;;;;;;4991909;28;20041;-63
2021/12/12 05:42:42;;;;;;;13.25;4.57;;;;;;;;;;4991916;28;20042;-63
2021/12/12 05:45:10;;;;;;;11.63;4.10;;;;;;;;;;4989191;28;20863;-63
2021/12/12 05:47:36;;;;;;;12.55;3.63;;;;;;;;;;4992575;28;20070;-62
2021/12/12 05:50:05;;;;;;;15.82;4.28;;;;;;;;;;4991350;28;20034;-63
2021/12/12 05:52:30;;;;;;;9.52;4.40;;;;;;;;;;4992299;28;20472;-63
2021/12/12 05:54:56;;;;;;;11.60;4.38;;;;;;;;;;4991473;28;20038;-63
2021/12/12 05:57:25;;;;;;;13.65;5.35;;;;;;;;;;4990896;28;20052;-63
2021/12/12 05:59:53;;;;;;;19.67;5.30;;;;;;;;;;4991318;28;20046;-64
2021/12/12 06:02:19;;;;;;;18.38;5.75;;;;;;;;;;4977754;28;20124;-63
2021/12/12 06:04:45;;;;;;;15.90;4.78;;;;;;;;;;4991882;28;20039;-63
2021/12/12 06:07:20;;;;;;;12.93;4.95;;;;;;;;;;4991544;28;20033;-62
2021/12/12 06:09:48;;;;;;;16.05;5.15;;;;;;;;;;4972423;28;20085;-66
2021/12/12 06:12:15;;;;;;;18.30;6.15;;;;;;;;;;4991227;28;20120;-63
2021/12/12 06:14:40;;;;;;;11.57;4.20;;;;;;;;;;4991943;28;20034;-62
2021/12/12 06:17:10;;;;;;;16.50;5.00;;;;;;;;;;4990798;28;20101;-63
2021/12/12 06:19:37;;;;;;;12.27;5.15;;;;;;;;;;4991897;28;20027;-63
2021/12/12 06:22:04;;;;;;;14.80;5.35;;;;;;;;;;4973755;28;20041;-63
2021/12/12 06:24:31;;;;;;;10.85;4.20;;;;;;;;;;4991659;28;20133;-62
2021/12/12 06:27:06;;;;;;;7.28;3.63;;;;;;;;;;4991148;28;20058;-63
2021/12/12 06:29:33;;;;;;;10.70;3.70;;;;;;;;;;4992273;28;20049;-62
2021/12/12 06:31:59;;;;;;;10.20;4.40;;;;;;;;;;4991202;28;20030;-63
2021/12/12 06:34:24;;;;;;;11.20;4.68;;;;;;;;;;4995577;28;20038;-63
2021/12/12 06:36:52;;;;;;;12.63;4.22;;;;;;;;;;4994776;28;20037;-66
2021/12/12 06:39:22;;;;;;;18.67;5.32;;;;;;;;;;4995748;28;20033;-62
2021/12/12 06:41:49;;;;;;;17.38;4.63;;;;;;;;;;4995586;28;20045;-66
2021/12/12 06:44:16;;;;;;;13.23;4.50;;;;;;;;;;4995342;28;20030;-62
2021/12/12 06:46:43;;;;;;;12.13;4.95;;;;;;;;;;4995017;28;20045;-63
2021/12/12 06:49:11;;;;;;;16.90;5.55;;;;;;;;;;4994550;28;20030;-63
2021/12/12 06:51:41;;;;;;;17.75;6.05;;;;;;;;;;4995480;28;20114;-63
2021/12/12 06:54:07;;;;;;;14.80;4.80;;;;;;;;;;4994912;28;20042;-63
2021/12/12 06:56:34;;;;;;;18.05;4.93;;;;;;;;;;4995136;28;20035;-63
2021/12/12 06:59:01;;;;;;;12.02;4.88;;;;;;;;;;4994699;28;20035;-62
2021/12/12 07:01:31;;;;;;;18.60;5.90;;;;;;;;;;4977891;28;20039;-63
2021/12/12 07:03:56;;;;;;;13.60;5.45;;;;;;;;;;4992758;28;20498;-63
2021/12/12 07:06:26;;;;;;;13.23;5.50;;;;;;;;;;4994486;28;20035;-63
2021/12/12 07:08:53;;;;;;;12.88;5.15;;;;;;;;;;4988872;28;20042;-66
2021/12/12 07:11:21;;;;;;;12.65;4.65;;;;;;;;;;4977005;28;20054;-62
2021/12/12 07:13:49;;;;;;;9.45;4.13;;;;;;;;;;4993673;28;20034;-64
2021/12/12 07:16:16;;;;;;;14.20;5.30;;;;;;;;;;4993880;28;20038;-63
2021/12/12 07:18:42;;;;;;;4.97;3.00;;;;;;;;;;4993746;28;20038;-63
2021/12/12 07:21:12;;;;;;;13.45;4.95;;;;;;;;;;4993205;28;20395;-63
2021/12/12 07:23:41;;;;;;;14.33;4.97;;;;;;;;;;4994181;28;20026;-64
2021/12/12 07:26:09;;;;;;;11.13;4.88;;;;;;;;;;4993879;28;20319;-64
2021/12/12 07:28:36;;;;;;;13.23;5.22;;;;;;;;;;4994462;28;20109;-64
2021/12/12 07:31:05;;;;;;;12.88;4.28;;;;;;;;;;4976571;28;20041;-64
2021/12/12 07:33:32;;;;;;;13.80;4.55;;;;;;;;;;4993881;28;20034;-63
2021/12/12 07:36:00;;;;;;;9.57;4.25;;;;;;;;;;4993793;28;20031;-64
2021/12/12 07:38:27;;;;;;;9.93;3.63;;;;;;;;;;4976972;28;20035;-63
2021/12/12 07:40:52;;;;;;;11.63;4.47;;;;;;;;;;4993899;28;20396;-67
2021/12/12 07:43:18;;;;;;;11.68;4.97;;;;;;;;;;4993336;28;20030;-63
2021/12/12 07:45:43;;;;;;;6.72;4.28;;;;;;;;;;4993668;28;20034;-63
2021/12/12 07:48:11;;;;;;;11.15;4.80;;;;;;;;;;4975254;28;20080;-64
2021/12/12 07:50:38;;;;;;;9.20;4.60;;;;;;;;;;4993662;28;20038;-65
2021/12/12 07:53:05;;;;;;;9.60;4.55;;;;;;;;;;4975737;28;20539;-64
2021/12/12 07:55:32;;;;;;;9.57;4.90;;;;;;;;;;4994301;28;20038;-64
2021/12/12 07:57:58;;;;;;;7.05;3.72;;;;;;;;;;4993264;28;20173;-64
2021/12/12 08:00:26;;;;;;;8.43;3.58;;;;;;;;;;4994301;28;20531;-64
2021/12/12 08:02:54;;;;;;;5.97;3.40;;;;;;;;;;4993397;28;20121;-66
2021/12/12 08:05:21;;;;;;;11.88;5.00;;;;;;;;;;4975829;28;20038;-63
2021/12/12 08:07:47;;;;;;;9.07;4.93;;;;;;;;;;4993967;28;20042;-63
2021/12/12 08:10:15;;;;;;;8.65;4.93;;;;;;;;;;4992503;28;20226;-64
2021/12/12 08:12:41;;;;;;;9.95;5.20;;;;;;;;;;4993246;28;20153;-64
2021/12/12 08:15:10;;;;;;;8.80;5.22;;;;;;;;;;4990968;28;20038;-63
2021/12/12 08:17:36;;;;;;;11.02;5.60;;;;;;;;;;4993424;28;20030;-64
2021/12/12 08:20:04;;;;;;;11.82;5.88;;;;;;;;;;4975703;28;20090;-63
2021/12/12 08:22:31;;;;;;;10.63;6.20;;;;;;;;;;4993433;28;20034;-63
2021/12/12 08:24:59;;;;;;;12.00;6.00;;;;;;;;;;4992916;28;20101;-67
2021/12/12 08:27:25;;;;;;;12.68;6.80;;;;;;;;;;4975705;28;20035;-64
2021/12/12 08:29:51;;;;;;;11.63;5.60;;;;;;;;;;4993589;28;20056;-65
2021/12/12 08:32:17;;;;;;;8.73;4.57;;;;;;;;;;4992508;28;20655;-64
2021/12/12 08:34:43;;;;;;;10.68;4.55;;;;;;;;;;4976384;28;20030;-64
2021/12/12 08:37:09;;;;;;;10.07;5.50;;;;;;;;;;4992624;28;20034;-68
2021/12/12 08:39:35;;;;;;;12.65;5.75;;;;;;;;;;4965793;28;20508;-64
2021/12/12 08:42:06;;;;;;;8.73;4.50;;;;;;;;;;4990945;28;20034;-66
2021/12/12 08:44:34;;;;;;;10.52;4.40;;;;;;;;;;4993848;28;20038;-66
2021/12/12 08:47:00;;;;;;;8.73;5.03;;;;;;;;;;4975043;28;20151;-66
2021/12/12 08:49:28;;;;;;;9.80;5.13;;;;;;;;;;4992055;28;20399;-67
2021/12/12 08:52:14;;;;;;;11.20;5.40;;;;;;;;;;4992982;28;20068;-66
2021/12/12 08:54:42;;;;;;;8.55;4.88;;;;;;;;;;4993473;28;20168;-68
2021/12/12 08:57:20;;;;;;;11.00;5.40;;;;;;;;;;4991473;28;20034;-66
2021/12/12 08:59:47;;;;;;;8.45;4.45;;;;;;;;;;4992852;28;20026;-66
2021/12/12 09:02:17;;;;;;;9.73;5.13;;;;;;;;;;4990503;28;20058;-65
2021/12/12 09:05:08;;;;;;;13.20;5.75;;;;;;;;;;4991229;28;20034;-65
2021/12/12 09:07:38;;;;;;;11.88;5.85;;;;;;;;;;4983247;28;20472;-66
2021/12/12 09:10:08;;;;;;;9.55;5.70;;;;;;;;;;4990630;28;20083;-66
2021/12/12 09:12:41;;;;;;;9.10;5.20;;;;;;;;;;4991483;28;20121;-65
2021/12/12 09:15:18;;;;;;;14.15;6.18;;;;;;;;;;4991720;28;20504;-65
2021/12/12 09:17:48;;;;;;;26.80;8.57;;;;;;;;;;4991765;28;20041;-64
2021/12/12 09:20:33;;;;;;;25.50;7.80;;;;;;;;;;4992458;28;20041;-66
2021/12/12 09:23:13;;;;;;;12.10;6.13;;;;;;;;;;4992105;28;20054;-67
2021/12/12 09:25:52;;;;;;;11.60;5.15;;;;;;;;;;4992188;28;20046;-65
2021/12/12 09:28:48;;;;;;;14.02;7.40;;;;;;;;;;4990572;28;20112;-65
2021/12/12 09:31:24;;;;;;;11.80;6.28;;;;;;;;;;4991806;28;20077;-65
2021/12/12 09:33:57;;;;;;;12.52;6.47;;;;;;;;;;4986011;28;20117;-64
2021/12/12 09:36:50;;;;;;;11.98;6.00;;;;;;;;;;4991758;28;20026;-64
2021/12/12 09:39:38;;;;;;;8.85;5.15;;;;;;;;;;4991425;28;20035;-65
2021/12/12 09:42:35;;;;;;;10.38;5.88;;;;;;;;;;4992095;28;20121;-66
2021/12/12 09:45:06;;;;;;;10.75;5.43;;;;;;;;;;4991385;28;20034;-63
2021/12/12 09:47:59;;;;;;;7.13;4.03;;;;;;;;;;4990424;28;20034;-62
2021/12/12 09:53:30;;;;;;;11.35;6.30;;;;;;;;;;4991200;28;20399;-65
2021/12/12 09:56:10;;;;;;;12.25;6.90;;;;;;;;;;4991534;28;20046;-64
2021/12/12 09:59:06;;;;;;;12.68;7.30;;;;;;;;;;4992448;28;20034;-65
2021/12/12 10:01:34;;;;;;;13.85;7.10;;;;;;;;;;4991663;28;20032;-65
2021/12/12 10:04:17;;;;;;;14.05;7.90;;;;;;;;;;4991642;28;20093;-66
2021/12/12 10:07:00;;;;;;;12.00;6.32;;;;;;;;;;4989139;28;20480;-64
2021/12/12 10:09:38;;;;;;;9.10;5.60;;;;;;;;;;4995851;28;20034;-64
2021/12/12 10:12:12;;;;;;;12.75;6.80;;;;;;;;;;4995259;28;20129;-66
2021/12/12 10:14:47;;;;;;;9.38;6.13;;;;;;;;;;4995886;28;20532;-65
2021/12/12 10:17:42;;;;;;;14.98;7.13;;;;;;;;;;4994598;28;20516;-65
2021/12/12 10:20:10;;;;;;;13.55;7.13;;;;;;;;;;4991784;28;20038;-66
2021/12/12 10:22:44;;;;;;;12.40;6.95;;;;;;;;;;4995911;28;20063;-65
2021/12/12 10:25:17;;;;;;;11.85;7.70;;;;;;;;;;4976932;28;20030;-66
2021/12/12 10:28:06;;;;;;;15.63;8.13;;;;;;;;;;4997603;28;20034;-66
2021/12/12 10:30:40;;;;;;;14.85;8.00;;;;;;;;;;4985801;28;20065;-65
2021/12/12 10:33:22;;;;;;;17.25;8.50;;;;;;;;;;4994208;28;20030;-68
2021/12/12 10:35:53;;;;;;;12.23;7.18;;;;;;;;;;4993152;28;20026;-64
2021/12/12 10:38:42;;;;;;;14.85;7.40;;;;;;;;;;4993957;28;20076;-67
2021/12/12 10:41:18;;;;;;;17.00;9.07;;;;;;;;;;4994054;28;20495;-65
2021/12/12 10:43:53;;;;;;;16.80;9.27;;;;;;;;;;4975840;28;20030;-66
2021/12/12 10:46:32;;;;;;;17.98;9.77;;;;;;;;;;4993905;28;20065;-66
2021/12/12 10:49:04;;;;;;;18.73;9.52;;;;;;;;;;4994728;28;20065;-66
2021/12/12 10:51:37;;;;;;;15.50;7.93;;;;;;;;;;4977403;28;20387;-65
2021/12/12 10:54:09;;;;;;;16.33;9.57;;;;;;;;;;4995234;28;20093;-66
2021/12/12 10:56:39;;;;;;;16.40;8.82;;;;;;;;;;4994704;28;20038;-66
2021/12/12 10:59:23;;;;;;;15.98;9.00;;;;;;;;;;4994865;28;20092;-67
2021/12/12 11:01:53;;;;;;;15.43;8.25;;;;;;;;;;4995589;28;20026;-66
2021/12/12 11:04:19;;;;;;;13.07;7.05;;;;;;;;;;4993185;28;20484;-70
2021/12/12 11:06:50;;;;;;;17.33;9.32;;;;;;;;;;4995580;28;20113;-66
2021/12/12 11:09:29;;;;;;;;;;;;;;;;;;4994955;28;20057;-66
2021/12/12 11:12:24;;;;;;;14.00;7.43;;;;;;;;;;4993999;28;19945;-66
2021/12/12 11:14:49;;;;;;;14.73;7.15;;;;;;;;;;4994496;28;20081;-65
2021/12/12 11:17:27;;;;;;;14.35;7.00;;;;;;;;;;4994132;28;20412;-67
2021/12/12 11:20:02;;;;;;;12.50;6.60;;;;;;;;;;4995040;28;20034;-65
2021/12/12 11:22:40;;;;;;;11.10;6.15;;;;;;;;;;4994314;28;20057;-65
2021/12/12 11:25:13;;;;;;;11.05;6.43;;;;;;;;;;4992936;28;20054;-67
2021/12/12 11:27:54;;;;;;;15.90;7.85;;;;;;;;;;4994326;28;20038;-66
2021/12/12 11:30:25;;;;;;;16.95;7.88;;;;;;;;;;4993509;28;20057;-65
2021/12/12 11:32:52;;;;;;;9.85;5.25;;;;;;;;;;4983528;28;20108;-65
2021/12/12 11:35:20;;;;;;;8.77;5.25;;;;;;;;;;4978406;28;20109;-66
2021/12/12 11:37:57;;;;;;;12.13;6.47;;;;;;;;;;4977359;28;20060;-66
2021/12/12 11:40:46;;;;;;;18.55;7.43;;;;;;;;;;4993756;28;20546;-66
2021/12/12 11:43:27;;;;;;;15.15;6.97;;;;;;;;;;4975292;28;20073;-67
2021/12/12 11:46:00;;;;;;;16.13;8.63;;;;;;;;;;4993654;28;20061;-67
2021/12/12 11:48:34;;;;;;;9.57;5.30;;;;;;;;;;4993474;28;20194;-65
2021/12/12 11:51:10;;;;;;;9.02;5.45;;;;;;;;;;4993374;28;20117;-65
2021/12/12 11:53:40;;;;;;;11.70;6.97;;;;;;;;;;4994445;28;20106;-66
2021/12/12 11:56:17;;;;;;;9.40;5.18;;;;;;;;;;4994513;28;20472;-65
2021/12/12 11:59:04;;;;;;;12.75;7.68;;;;;;;;;;4976528;28;20051;-65
2021/12/12 12:01:36;;;;;;;9.05;5.60;;;;;;;;;;4991648;28;20080;-64
2021/12/12 12:04:13;;;;;;;10.18;5.85;;;;;;;;;;4975514;28;20369;-65
2021/12/12 12:06:44;;;;;;;13.80;6.93;;;;;;;;;;4980309;28;20045;-65
2021/12/12 12:09:47;;;;;;;13.93;7.53;;;;;;;;;;4993498;28;20572;-65
2021/12/12 12:12:27;;;;;;;12.18;6.60;;;;;;;;;;4992697;28;20124;-66
2021/12/12 12:15:16;;;;;;;15.50;8.40;;;;;;;;;;4992957;28;20046;-65
2021/12/12 12:17:47;;;;;;;14.73;8.02;;;;;;;;;;4993197;28;20275;-65
2021/12/12 12:21:05;;;;;;;11.32;6.63;;;;;;;;;;4980455;28;20094;-65
2021/12/12 12:24:10;;;;;;;7.68;4.65;;;;;;;;;;4941896;28;20046;-65
2021/12/12 12:26:51;;;;;;;9.98;6.85;;;;;;;;;;4992826;28;20041;-65
2021/12/12 12:30:11;;;;;;;11.03;6.53;;;;;;;;;;4991828;28;20068;-66
2021/12/12 12:33:01;;;;;;;11.90;7.35;;;;;;;;;;4977886;28;20304;-65
2021/12/12 12:36:04;;;;;;;13.43;7.43;;;;;;;;;;4992766;28;20030;-65
2021/12/12 12:39:14;;;;;;;10.00;5.82;;;;;;;;;;4985998;28;20283;-64
2021/12/12 12:42:04;;;;;;;7.30;4.43;;;;;;;;;;4984572;28;20046;-65
2021/12/12 12:45:08;;;;;;;13.30;7.30;;;;;;;;;;4992275;28;20720;-65
2021/12/12 12:47:42;;;;;;;11.13;7.25;;;;;;;;;;4991591;28;20373;-65
2021/12/12 12:50:45;;;;;;;10.02;5.75;;;;;;;;;;4992716;28;20065;-65
2021/12/12 12:53:44;;;;;;;12.45;6.38;;;;;;;;;;4991171;28;20109;-65
2021/12/12 12:56:46;;;;;;;10.68;6.32;;;;;;;;;;4992238;28;20053;-65
2021/12/12 12:59:24;;;;;;;10.32;6.30;;;;;;;;;;4981113;28;20037;-65
2021/12/12 13:02:12;;;;;;;11.95;6.93;;;;;;;;;;4993168;28;20031;-65
2021/12/12 13:04:56;;;;;;;9.65;5.75;;;;;;;;;;4992511;28;20116;-65
2021/12/12 13:07:39;;;;;;;9.10;5.72;;;;;;;;;;4990062;28;20030;-65
2021/12/12 13:10:17;;;;;;;7.35;4.65;;;;;;;;;;4993090;28;20030;-66
2021/12/12 13:12:52;;;;;;;8.40;5.32;;;;;;;;;;4992161;28;20487;-66
2021/12/12 13:15:48;;;;;;;10.65;6.13;;;;;;;;;;4992391;28;20034;-66
2021/12/12 13:18:32;;;;;;;9.77;6.60;;;;;;;;;;4991582;28;20038;-67
2021/12/12 13:21:22;;;;;;;8.57;5.15;;;;;;;;;;4975648;28;20030;-65
2021/12/12 13:23:59;;;;;;;7.40;4.82;;;;;;;;;;4993505;28;20042;-65
2021/12/12 13:26:46;;;;;;;10.00;6.03;;;;;;;;;;4994416;28;20038;-68
2021/12/12 13:29:25;;;;;;;10.95;6.65;;;;;;;;;;4995940;28;20108;-68
2021/12/12 13:31:59;;;;;;;9.00;5.45;;;;;;;;;;4995553;28;20472;-66
2021/12/12 13:34:37;;;;;;;11.43;6.80;;;;;;;;;;4991735;28;20057;-66
2021/12/12 13:37:31;;;;;;;15.75;7.70;;;;;;;;;;4981256;28;20508;-66
2021/12/12 13:40:33;;;;;;;12.65;7.07;;;;;;;;;;4992215;28;20049;-64
2021/12/12 13:43:31;;;;;;;13.10;9.05;;;;;;;;;;4974349;28;20423;-66
2021/12/12 13:46:32;;;;;;;15.93;9.27;;;;;;;;;;4987314;28;20030;-66
2021/12/12 13:49:08;;;;;;;14.85;9.63;;;;;;;;;;4885663;29;20040;-66
2021/12/12 13:51:57;;;;;;;13.40;8.70;;;;;;;;;;4978010;28;20628;-66
2021/12/12 13:54:38;;;;;;;18.83;10.43;;;;;;;;;;4991422;28;20045;-66
2021/12/12 13:57:27;;;;;;;13.85;8.38;;;;;;;;;;4974032;28;20040;-66
2021/12/12 14:00:04;;;;;;;16.20;8.95;;;;;;;;;;4992075;28;20054;-70
2021/12/12 14:02:31;;;;;;;16.70;9.98;;;;;;;;;;4991569;28;20056;-69
2021/12/12 14:05:23;;;;;;;15.45;9.55;;;;;;;;;;4989082;28;20168;-73
2021/12/12 14:07:58;;;;;;;18.15;11.32;;;;;;;;;;4985698;28;20050;-79
2021/12/12 14:10:29;;;;;;;10.23;5.68;;;;;;;;;;4966604;28;20038;-64
2021/12/12 14:13:18;;;;;;;15.00;9.40;;;;;;;;;;4986146;28;20055;-67
2021/12/12 14:15:50;;;;;;;11.35;7.28;;;;;;;;;;4991462;28;20031;-67
2021/12/12 14:18:19;;;;;;;15.90;9.70;;;;;;;;;;4991131;28;20031;-68
2021/12/12 14:20:48;;;;;;;14.50;9.10;;;;;;;;;;4988762;28;20035;-67
2021/12/12 14:23:18;;;;;;;16.13;9.30;;;;;;;;;;4991386;28;20495;-67
2021/12/12 14:25:49;;;;;;;14.45;9.38;;;;;;;;;;4991182;28;20494;-66
2021/12/12 14:28:19;;;;;;;14.52;9.63;;;;;;;;;;4991053;28;20462;-64
2021/12/12 14:30:46;;;;;;;14.93;9.27;;;;;;;;;;4990562;28;20403;-65
2021/12/12 14:33:17;;;;;;;12.02;8.20;;;;;;;;;;4973337;28;20042;-67
2021/12/12 14:35:47;;;;;;;15.25;9.65;;;;;;;;;;4991749;28;20066;-67
2021/12/12 14:38:16;;;;;;;16.87;10.63;;;;;;;;;;4991648;28;20045;-66
2021/12/12 14:40:47;;;;;;;15.52;10.18;;;;;;;;;;4990182;28;20038;-67
2021/12/12 14:43:24;;;;;;;12.45;7.90;;;;;;;;;;4991824;28;20026;-67
2021/12/12 14:46:04;;;;;;;13.82;7.88;;;;;;;;;;4991159;28;20031;-67
2021/12/12 14:48:44;;;;;;;12.47;7.47;;;;;;;;;;4989342;28;20442;-66
2021/12/12 14:51:13;;;;;;;13.93;9.05;;;;;;;;;;4971752;28;20283;-67
2021/12/12 14:53:43;;;;;;;12.82;7.70;;;;;;;;;;4984566;28;20033;-67
2021/12/12 14:56:15;;;;;;;16.88;9.60;;;;;;;;;;4995571;28;20034;-66
2021/12/12 14:58:56;;;;;;;16.38;10.35;;;;;;;;;;4994100;28;20030;-66
2021/12/12 15:01:34;;;;;;;19.08;11.25;;;;;;;;;;4993706;28;20088;-67
2021/12/12 15:04:09;;;;;;;14.57;8.43;;;;;;;;;;4988273;28;20031;-66
2021/12/12 15:06:49;;;;;;;13.00;7.88;;;;;;;;;;4996631;28;20042;-65
2021/12/12 15:09:39;;;;;;;18.15;10.23;;;;;;;;;;4995356;28;20105;-67
2021/12/12 15:12:28;;;;;;;13.18;8.25;;;;;;;;;;4995165;28;20061;-66
2021/12/12 15:14:57;;;;;;;15.93;9.85;;;;;;;;;;4995457;28;20080;-67
2021/12/12 15:17:24;;;;;;;17.60;10.57;;;;;;;;;;4993963;28;20040;-66
2021/12/12 15:19:53;;;;;;;16.38;9.73;;;;;;;;;;4993349;28;20026;-66
2021/12/12 15:22:22;;;;;;;15.57;9.73;;;;;;;;;;4993453;28;20038;-68
2021/12/12 15:24:57;;;;;;;14.55;8.68;;;;;;;;;;4994773;28;20039;-67
2021/12/12 15:27:37;;;;;;;18.88;10.32;;;;;;;;;;4976134;28;20038;-67
2021/12/12 15:30:07;;;;;;;19.30;11.18;;;;;;;;;;4994251;28;20180;-67
2021/12/12 15:32:33;;;;;;;14.25;8.27;;;;;;;;;;4976126;28;20060;-66
2021/12/12 15:35:05;;;;;;;14.85;9.30;;;;;;;;;;4994098;28;20476;-66